| time (UTC) | temp F | wind direction | speed MPH | gust MPH | rain 1hr in | rain 24hr in | rain mn in | humidity % | barometer mb |
| 20260503212255 | 70 | 184 | 0.0 | 1.0 | 0.00 | 0.00 | 0.00 | 32 | 1018.5 |
| 20260503211753 | 70 | 73 | 1.0 | 2.0 | 0.00 | 0.00 | 0.00 | 31 | 1018.6 |
| 20260503211249 | 70 | 195 | 1.0 | 1.0 | 0.00 | 0.00 | 0.00 | 33 | 1018.3 |
| 20260503210744 | 70 | 188 | 0.0 | 1.0 | 0.00 | 0.00 | 0.00 | 31 | 1018.6 |
| 20260503210237 | 70 | 168 | 0.0 | 2.0 | 0.00 | 0.00 | 0.00 | 32 | 1018.6 |
| 20260503205731 | 70 | 167 | 1.0 | 2.0 | 0.00 | 0.00 | 0.00 | 31 | 1018.7 |
| 20260503205228 | 70 | 68 | 2.0 | 2.0 | 0.00 | 0.00 | 0.00 | 28 | 1018.5 |
| 20260503204724 | 70 | 149 | 0.0 | 2.0 | 0.00 | 0.00 | 0.00 | 29 | 1018.8 |
| 20260503204223 | 70 | 187 | 1.0 | 1.0 | 0.00 | 0.00 | 0.00 | 31 | 1018.9 |
| 20260503203720 | 70 | 205 | 1.0 | 1.0 | 0.00 | 0.00 | 0.00 | 32 | 1018.8 |
| 20260503203217 | 69 | 195 | 0.0 | 2.0 | 0.00 | 0.00 | 0.00 | 30 | 1018.9 |
| 20260503202714 | 70 | 196 | 1.0 | 2.0 | 0.00 | 0.00 | 0.00 | 30 | 1019.0 |
| 20260503202212 | 70 | 317 | 2.0 | 2.0 | 0.00 | 0.00 | 0.00 | 31 | 1019.1 |
| 20260503201709 | 70 | 183 | 0.0 | 1.0 | 0.00 | 0.00 | 0.00 | 33 | 1019.1 |
| 20260503201207 | 70 | 186 | 0.0 | 1.0 | 0.00 | 0.00 | 0.00 | 30 | 1019.0 |
| 20260503200703 | 69 | 208 | 2.0 | 2.0 | 0.00 | 0.00 | 0.00 | 30 | 1019.4 |
| 20260503200200 | 69 | 180 | 0.0 | 1.0 | 0.00 | 0.00 | 0.00 | 30 | 1019.6 |
| 20260503195656 | 70 | 244 | 2.0 | 2.0 | 0.00 | 0.00 | 0.00 | 32 | 1019.4 |
| 20260503195153 | 70 | 198 | 0.0 | 1.0 | 0.00 | 0.00 | 0.00 | 30 | 1019.6 |
| 20260503194650 | 70 | 55 | 2.0 | 2.0 | 0.00 | 0.00 | 0.00 | 29 | 1019.7 |
| 20260503194145 | 70 | 74 | 2.0 | 3.0 | 0.00 | 0.00 | 0.00 | 28 | 1019.8 |
| 20260503193642 | 70 | 194 | 1.0 | 1.0 | 0.00 | 0.00 | 0.00 | 29 | 1019.8 |
| 20260503193137 | 70 | 204 | 1.0 | 2.0 | 0.00 | 0.00 | 0.00 | 30 | 1020.1 |
| 20260503192633 | 69 | 183 | 0.0 | 2.0 | 0.00 | 0.00 | 0.00 | 29 | 1020.2 |
| 20260503192129 | 70 | 269 | 2.0 | 2.0 | 0.00 | 0.00 | 0.00 | 30 | 1020.2 |
| 20260503191626 | 71 | 315 | 2.0 | 2.0 | 0.00 | 0.00 | 0.00 | 28 | 1020.0 |
| 20260503191123 | 70 | 161 | 0.0 | 1.0 | 0.00 | 0.00 | 0.00 | 27 | 1020.4 |
| 20260503190620 | 70 | 274 | 1.0 | 2.0 | 0.00 | 0.00 | 0.00 | 29 | 1020.4 |
| 20260503190117 | 70 | 175 | 0.0 | 1.0 | 0.00 | 0.00 | 0.00 | 28 | 1020.5 |
| 20260503185614 | 70 | 210 | 1.0 | 2.0 | 0.00 | 0.00 | 0.00 | 30 | 1020.5 |
| 20260503185109 | 71 | 279 | 1.0 | 1.0 | 0.00 | 0.00 | 0.00 | 30 | 1020.8 |
| 20260503184604 | 71 | 211 | 0.0 | 2.0 | 0.00 | 0.00 | 0.00 | 27 | 1020.8 |
| 20260503184101 | 72 | 201 | 1.0 | 2.0 | 0.00 | 0.00 | 0.00 | 29 | 1020.7 |
| 20260503183557 | 71 | 188 | 0.0 | 1.0 | 0.00 | 0.00 | 0.00 | 28 | 1020.7 |
| 20260503183055 | 71 | 154 | 0.0 | 1.0 | 0.00 | 0.00 | 0.00 | 30 | 1020.7 |
| 20260503182553 | 71 | 161 | 0.0 | 1.0 | 0.00 | 0.00 | 0.00 | 29 | 1020.9 |
| 20260503182051 | 71 | 189 | 0.0 | 2.0 | 0.00 | 0.00 | 0.00 | 30 | 1021.0 |
| 20260503181548 | 71 | 196 | 1.0 | 2.0 | 0.00 | 0.00 | 0.00 | 31 | 1020.9 |
| 20260503181044 | 70 | 150 | 1.0 | 1.0 | 0.00 | 0.00 | 0.00 | 28 | 1021.1 |
| 20260503180541 | 68 | 185 | 0.0 | 3.0 | 0.00 | 0.00 | 0.00 | 30 | 1021.0 |
| 20260503180038 | 71 | 221 | 2.0 | 3.0 | 0.00 | 0.00 | 0.00 | 28 | 1021.0 |
| 20260503175535 | 70 | 202 | 0.0 | 2.0 | 0.00 | 0.00 | 0.00 | 28 | 1021.1 |
| 20260503175032 | 69 | 165 | 1.0 | 1.0 | 0.00 | 0.00 | 0.00 | 28 | 1021.1 |
| 20260503174524 | 70 | 189 | 0.0 | 1.0 | 0.00 | 0.00 | 0.00 | 28 | 1021.3 |
| 20260503174020 | 69 | 219 | 1.0 | 1.0 | 0.00 | 0.00 | 0.00 | 31 | 1021.3 |
| 20260503173515 | 69 | 208 | 1.0 | 2.0 | 0.00 | 0.00 | 0.00 | 31 | 1021.4 |
| 20260503173012 | 69 | 267 | 1.0 | 2.0 | 0.00 | 0.00 | 0.00 | 32 | 1021.4 |
| 20260503172510 | 69 | 357 | 2.0 | 2.0 | 0.00 | 0.00 | 0.00 | 29 | 1021.4 |
| 20260503172006 | 68 | 215 | 1.0 | 2.0 | 0.00 | 0.00 | 0.00 | 30 | 1021.7 |
| 20260503171503 | 69 | 260 | 2.0 | 2.0 | 0.00 | 0.00 | 0.00 | 32 | 1021.7 |
| 20260503171001 | 69 | 10 | 1.0 | 2.0 | 0.00 | 0.00 | 0.00 | 34 | 1021.6 |
| 20260503170456 | 69 | 219 | 0.0 | 1.0 | 0.00 | 0.00 | 0.00 | 34 | 1021.7 |
| 20260503150849 | 61 | 188 | 1.0 | 1.0 | 0.00 | 0.00 | 0.00 | 44 | 1022.7 |
| 20260503150345 | 61 | 191 | 0.0 | 1.0 | 0.00 | 0.00 | 0.00 | 43 | 1023.0 |
| 20260503140309 | 57 | 152 | 0.0 | 1.0 | 0.00 | 0.00 | 0.00 | 55 | 1022.5 |
| 20260503131239 | 51 | 160 | 0.0 | 0.0 | 0.00 | 0.00 | 0.00 | 86 | 1022.4 |
| 20260503130737 | 50 | 160 | 0.0 | 0.0 | 0.00 | 0.00 | 0.00 | 86 | 1022.5 |
| 20260503130234 | 50 | 160 | 0.0 | 0.0 | 0.00 | 0.00 | 0.00 | 87 | 1022.4 |
| 20260503120153 | 46 | 158 | 0.0 | 0.0 | 0.00 | 0.00 | 0.00 | 87 | 1022.2 |
| 20260503110621 | 45 | 158 | 0.0 | 0.0 | 0.00 | 0.00 | 0.00 | 87 | 1021.2 |
| 20260503110118 | 45 | 158 | 0.0 | 0.0 | 0.00 | 0.00 | 0.00 | 87 | 1021.3 |
| 20260503090508 | 47 | 158 | 0.0 | 0.0 | 0.00 | 0.00 | 0.00 | 87 | 1019.8 |
| 20260503081434 | 46 | 158 | 0.0 | 0.0 | 0.00 | 0.00 | 0.00 | 87 | 1019.3 |
| 20260503080931 | 46 | 158 | 0.0 | 0.0 | 0.00 | 0.00 | 0.00 | 87 | 1019.1 |
| 20260503080427 | 46 | 158 | 0.0 | 0.0 | 0.00 | 0.00 | 0.00 | 87 | 1019.0 |
| 20260503072858 | 47 | 158 | 0.0 | 0.0 | 0.00 | 0.00 | 0.00 | 87 | 1018.6 |
| 20260503072355 | 46 | 158 | 0.0 | 0.0 | 0.00 | 0.00 | 0.00 | 87 | 1018.4 |
| 20260503071852 | 47 | 158 | 0.0 | 0.0 | 0.00 | 0.00 | 0.00 | 87 | 1018.7 |
| 20260503071349 | 47 | 158 | 0.0 | 0.0 | 0.00 | 0.00 | 0.00 | 87 | 1018.4 |
| 20260503070845 | 47 | 158 | 0.0 | 0.0 | 0.00 | 0.00 | 0.00 | 87 | 1018.4 |
| 20260503070343 | 47 | 158 | 0.0 | 0.0 | 0.00 | 0.00 | 0.00 | 87 | 1018.3 |
| 20260503060303 | 49 | 158 | 0.0 | 0.0 | 0.00 | 0.00 | 0.00 | 87 | 1018.4 |
| 20260503054749 | 49 | 158 | 0.0 | 0.0 | 0.00 | 0.00 | 0.00 | 87 | 1018.6 |
| 20260503054240 | 49 | 158 | 0.0 | 0.0 | 0.00 | 0.00 | 0.00 | 87 | 1018.5 |
| 20260503053738 | 50 | 158 | 0.0 | 0.0 | 0.00 | 0.00 | 0.00 | 87 | 1018.4 |
| 20260503053237 | 50 | 158 | 0.0 | 0.0 | 0.00 | 0.00 | 0.00 | 87 | 1018.4 |
| 20260503052733 | 50 | 158 | 0.0 | 0.0 | 0.00 | 0.00 | 0.00 | 87 | 1018.3 |
| 20260503052230 | 50 | 158 | 0.0 | 0.0 | 0.00 | 0.00 | 0.00 | 87 | 1018.5 |
| 20260503051724 | 50 | 158 | 0.0 | 0.0 | 0.00 | 0.00 | 0.00 | 87 | 1018.5 |
| 20260503051223 | 50 | 158 | 0.0 | 0.0 | 0.00 | 0.00 | 0.00 | 87 | 1018.4 |
| 20260503050719 | 50 | 158 | 0.0 | 0.0 | 0.00 | 0.00 | 0.00 | 87 | 1018.3 |
| 20260503050215 | 50 | 158 | 0.0 | 0.0 | 0.00 | 0.00 | 0.00 | 87 | 1018.3 |
| 20260503045713 | 51 | 158 | 0.0 | 0.0 | 0.00 | 0.00 | 0.00 | 87 | 1018.2 |
| 20260503045210 | 51 | 158 | 0.0 | 0.0 | 0.00 | 0.00 | 0.00 | 87 | 1017.9 |
| 20260503044707 | 51 | 158 | 0.0 | 0.0 | 0.00 | 0.00 | 0.00 | 87 | 1018.1 |
| 20260503044204 | 52 | 158 | 0.0 | 0.0 | 0.00 | 0.00 | 0.00 | 87 | 1018.0 |
| 20260503043701 | 52 | 158 | 0.0 | 0.0 | 0.00 | 0.00 | 0.00 | 87 | 1018.0 |
| 20260503043158 | 52 | 158 | 0.0 | 0.0 | 0.00 | 0.00 | 0.00 | 87 | 1018.0 |
| 20260503042653 | 52 | 157 | 0.0 | 0.0 | 0.00 | 0.00 | 0.00 | 87 | 1018.0 |
| 20260503042145 | 52 | 158 | 0.0 | 0.0 | 0.00 | 0.00 | 0.00 | 87 | 1017.8 |
| 20260503041641 | 52 | 158 | 0.0 | 0.0 | 0.00 | 0.00 | 0.00 | 87 | 1018.0 |
| 20260503041139 | 53 | 158 | 0.0 | 0.0 | 0.00 | 0.00 | 0.00 | 86 | 1017.9 |
| 20260503040636 | 53 | 157 | 0.0 | 0.0 | 0.00 | 0.00 | 0.00 | 87 | 1018.0 |
| 20260503040134 | 53 | 158 | 0.0 | 0.0 | 0.00 | 0.00 | 0.00 | 86 | 1017.9 |
| 20260503035630 | 53 | 158 | 0.0 | 0.0 | 0.00 | 0.30 | 0.30 | 86 | 1017.8 |
| 20260503035128 | 54 | 158 | 0.0 | 0.0 | 0.00 | 0.30 | 0.30 | 86 | 1017.7 |
| 20260503034625 | 54 | 158 | 0.0 | 0.0 | 0.00 | 0.30 | 0.30 | 86 | 1017.7 |
| 20260503034122 | 54 | 158 | 0.0 | 0.0 | 0.00 | 0.30 | 0.30 | 86 | 1017.8 |
| 20260503033619 | 54 | 158 | 0.0 | 0.0 | 0.00 | 0.30 | 0.30 | 86 | 1017.8 |
| 20260503033117 | 55 | 158 | 0.0 | 0.0 | 0.00 | 0.30 | 0.30 | 86 | 1017.7 |
| 20260503032615 | 55 | 158 | 0.0 | 0.0 | 0.00 | 0.30 | 0.30 | 86 | 1018.0 |
| 20260503032113 | 55 | 158 | 0.0 | 0.0 | 0.00 | 0.30 | 0.30 | 86 | 1017.7 |
| 20260503031610 | 55 | 158 | 0.0 | 0.0 | 0.00 | 0.30 | 0.30 | 86 | 1017.7 |
| 20260503031108 | 55 | 158 | 0.0 | 0.0 | 0.00 | 0.30 | 0.30 | 86 | 1017.8 |
| 20260503030604 | 55 | 158 | 0.0 | 0.0 | 0.00 | 0.30 | 0.30 | 86 | 1017.8 |
| 20260503030101 | 55 | 158 | 0.0 | 0.0 | 0.00 | 0.30 | 0.30 | 86 | 1017.5 |
| 20260503025557 | 55 | 158 | 0.0 | 0.0 | 0.00 | 0.30 | 0.30 | 86 | 1017.4 |
| 20260503025055 | 55 | 158 | 0.0 | 0.0 | 0.00 | 0.30 | 0.30 | 86 | 1017.3 |
| 20260503024551 | 54 | 158 | 0.0 | 0.0 | 0.00 | 0.30 | 0.30 | 86 | 1017.2 |
| 20260503024049 | 55 | 158 | 0.0 | 0.0 | 0.00 | 0.30 | 0.30 | 86 | 1017.4 |
| 20260503023545 | 55 | 158 | 0.0 | 0.0 | 0.00 | 0.30 | 0.30 | 86 | 1017.3 |
| 20260503023043 | 55 | 158 | 0.0 | 0.0 | 0.00 | 0.30 | 0.30 | 86 | 1017.1 |
| 20260503022538 | 54 | 157 | 0.0 | 0.0 | 0.00 | 0.30 | 0.30 | 86 | 1017.2 |
| 20260503022033 | 54 | 158 | 0.0 | 0.0 | 0.00 | 0.30 | 0.30 | 86 | 1017.1 |
| 20260503021530 | 54 | 158 | 0.0 | 0.0 | 0.00 | 0.30 | 0.30 | 86 | 1016.9 |
| 20260503021027 | 54 | 158 | 0.0 | 0.0 | 0.00 | 0.30 | 0.30 | 86 | 1016.8 |
| 20260503020524 | 54 | 158 | 0.0 | 0.0 | 0.00 | 0.30 | 0.30 | 85 | 1016.6 |
| 20260503020021 | 54 | 158 | 0.0 | 0.0 | 0.00 | 0.30 | 0.30 | 85 | 1016.5 |
| 20260503015517 | 54 | 158 | 0.0 | 0.0 | 0.00 | 0.30 | 0.30 | 85 | 1016.5 |
| 20260503015015 | 54 | 158 | 0.0 | 0.0 | 0.00 | 0.30 | 0.30 | 85 | 1016.7 |
| 20260503014511 | 54 | 158 | 0.0 | 0.0 | 0.00 | 0.30 | 0.30 | 85 | 1016.3 |
| 20260503014009 | 54 | 158 | 0.0 | 0.0 | 0.00 | 0.30 | 0.30 | 85 | 1016.1 |
| 20260503013506 | 54 | 158 | 0.0 | 0.0 | 0.00 | 0.30 | 0.30 | 85 | 1016.2 |
| 20260503013004 | 54 | 158 | 0.0 | 0.0 | 0.00 | 0.30 | 0.30 | 85 | 1016.2 |
| 20260503012501 | 54 | 158 | 0.0 | 0.0 | 0.00 | 0.30 | 0.30 | 85 | 1015.9 |
| 20260503011956 | 54 | 158 | 0.0 | 0.0 | 0.00 | 0.30 | 0.30 | 85 | 1015.9 |
| 20260503011454 | 54 | 158 | 0.0 | 0.0 | 0.00 | 0.30 | 0.30 | 84 | 1015.8 |
| 20260503010951 | 54 | 158 | 0.0 | 0.0 | 0.00 | 0.30 | 0.30 | 84 | 1015.7 |
| 20260503010447 | 54 | 158 | 0.0 | 0.0 | 0.00 | 0.30 | 0.30 | 84 | 1015.7 |
| 20260503005945 | 55 | 158 | 0.0 | 0.0 | 0.00 | 0.30 | 0.30 | 84 | 1015.7 |
| 20260503005442 | 55 | 158 | 0.0 | 0.0 | 0.00 | 0.30 | 0.30 | 84 | 1015.6 |
| 20260503004939 | 55 | 158 | 0.0 | 0.0 | 0.00 | 0.30 | 0.30 | 83 | 1015.7 |
| 20260503004435 | 55 | 158 | 0.0 | 0.0 | 0.00 | 0.30 | 0.30 | 83 | 1015.4 |
| 20260503003933 | 56 | 158 | 0.0 | 0.0 | 0.00 | 0.30 | 0.30 | 82 | 1015.3 |
| 20260503003429 | 56 | 158 | 0.0 | 0.0 | 0.00 | 0.30 | 0.30 | 81 | 1015.1 |
| 20260503002927 | 56 | 158 | 0.0 | 0.0 | 0.00 | 0.30 | 0.30 | 81 | 1015.0 |
| 20260503002424 | 57 | 158 | 0.0 | 0.0 | 0.00 | 0.30 | 0.30 | 81 | 1014.9 |
| 20260503001920 | 57 | 158 | 0.0 | 0.0 | 0.00 | 0.30 | 0.30 | 81 | 1014.9 |
| 20260503001416 | 57 | 158 | 0.0 | 0.0 | 0.00 | 0.30 | 0.30 | 80 | 1014.8 |
| 20260503000914 | 57 | 158 | 0.0 | 0.0 | 0.00 | 0.30 | 0.30 | 78 | 1014.8 |
| 20260503000411 | 58 | 158 | 0.0 | 0.0 | 0.00 | 0.30 | 0.30 | 78 | 1014.6 |
| 20260502235909 | 58 | 158 | 0.0 | 0.0 | 0.00 | 0.30 | 0.30 | 78 | 1014.3 |
| 20260502235405 | 59 | 158 | 0.0 | 0.0 | 0.00 | 0.30 | 0.30 | 77 | 1014.5 |
| 20260502234902 | 59 | 158 | 0.0 | 0.0 | 0.00 | 0.30 | 0.30 | 76 | 1014.5 |
| 20260502234358 | 59 | 158 | 0.0 | 0.0 | 0.00 | 0.30 | 0.30 | 73 | 1014.5 |
| 20260502233855 | 60 | 158 | 0.0 | 0.0 | 0.00 | 0.30 | 0.30 | 76 | 1014.5 |
| 20260502233351 | 60 | 158 | 0.0 | 0.0 | 0.00 | 0.30 | 0.30 | 76 | 1014.4 |
| 20260502232848 | 60 | 158 | 0.0 | 0.0 | 0.00 | 0.30 | 0.30 | 74 | 1014.4 |
| 20260502232345 | 60 | 158 | 0.0 | 0.0 | 0.00 | 0.30 | 0.30 | 73 | 1014.4 |
| 20260502231841 | 60 | 157 | 0.0 | 0.0 | 0.00 | 0.30 | 0.30 | 73 | 1014.2 |
| 20260502231339 | 60 | 157 | 0.0 | 0.0 | 0.00 | 0.30 | 0.30 | 70 | 1014.2 |
| 20260502230837 | 60 | 157 | 0.0 | 0.0 | 0.00 | 0.30 | 0.30 | 69 | 1014.0 |
| 20260502230335 | 60 | 157 | 0.0 | 0.0 | 0.00 | 0.30 | 0.30 | 68 | 1014.0 |
| 20260502225832 | 60 | 157 | 0.0 | 0.0 | 0.00 | 0.30 | 0.30 | 70 | 1013.9 |
| 20260502225328 | 60 | 157 | 0.0 | 0.0 | 0.00 | 0.30 | 0.30 | 69 | 1014.0 |
| 20260502224825 | 60 | 157 | 0.0 | 0.0 | 0.00 | 0.30 | 0.30 | 67 | 1014.0 |
| 20260502224321 | 61 | 157 | 0.0 | 0.0 | 0.00 | 0.30 | 0.30 | 66 | 1014.0 |
| 20260502223819 | 61 | 160 | 0.0 | 0.0 | 0.00 | 0.30 | 0.30 | 65 | 1014.0 |
| 20260502223317 | 61 | 160 | 0.0 | 0.0 | 0.00 | 0.30 | 0.30 | 66 | 1014.0 |
| 20260502222814 | 61 | 160 | 0.0 | 0.0 | 0.00 | 0.30 | 0.30 | 65 | 1014.2 |
| 20260502222311 | 61 | 160 | 0.0 | 0.0 | 0.00 | 0.30 | 0.30 | 65 | 1014.2 |
| 20260502221807 | 62 | 160 | 0.0 | 0.0 | 0.00 | 0.30 | 0.30 | 63 | 1014.1 |
| 20260502221303 | 62 | 160 | 0.0 | 0.0 | 0.00 | 0.30 | 0.30 | 63 | 1014.2 |
| 20260502220801 | 62 | 161 | 0.0 | 1.0 | 0.00 | 0.30 | 0.30 | 61 | 1014.2 |
| 20260502220256 | 62 | 161 | 0.0 | 0.0 | 0.00 | 0.30 | 0.30 | 61 | 1013.9 |
| 20260502215753 | 63 | 161 | 0.0 | 0.0 | 0.00 | 0.30 | 0.30 | 59 | 1014.0 |
| 20260502215250 | 63 | 161 | 0.0 | 0.0 | 0.00 | 0.30 | 0.30 | 58 | 1014.1 |
| 20260502214747 | 63 | 161 | 0.0 | 0.0 | 0.00 | 0.30 | 0.30 | 58 | 1013.9 |
| 20260502214244 | 63 | 179 | 0.0 | 0.0 | 0.00 | 0.30 | 0.30 | 56 | 1013.9 |
| 20260502213742 | 63 | 165 | 0.0 | 1.0 | 0.00 | 0.30 | 0.30 | 61 | 1013.9 |
| 20260502213239 | 63 | 181 | 0.0 | 1.0 | 0.00 | 0.30 | 0.30 | 59 | 1013.9 |
| 20260502212738 | 62 | 155 | 0.0 | 1.0 | 0.00 | 0.30 | 0.30 | 61 | 1013.7 |